sensor_id;sensor_type;location;lat;lon;timestamp;P1;durP1;ratioP1;P2;durP2;ratioP2
830;SDS011;397;50.564;7.272;2024-03-02T00:00:20;3.73;;;2.90;;
830;SDS011;397;50.564;7.272;2024-03-02T00:02:48;4.10;;;3.03;;
830;SDS011;397;50.564;7.272;2024-03-02T00:05:22;5.50;;;2.57;;
830;SDS011;397;50.564;7.272;2024-03-02T00:07:46;3.97;;;2.70;;
830;SDS011;397;50.564;7.272;2024-03-02T00:10:16;2.67;;;1.70;;
830;SDS011;397;50.564;7.272;2024-03-02T00:12:43;4.00;;;2.63;;
830;SDS011;397;50.564;7.272;2024-03-02T00:18:00;6.03;;;2.03;;
830;SDS011;397;50.564;7.272;2024-03-02T00:20:27;3.47;;;2.60;;
830;SDS011;397;50.564;7.272;2024-03-02T00:22:59;4.80;;;2.73;;
830;SDS011;397;50.564;7.272;2024-03-02T00:25:25;3.00;;;2.33;;
830;SDS011;397;50.564;7.272;2024-03-02T00:27:52;5.10;;;2.77;;
830;SDS011;397;50.564;7.272;2024-03-02T00:33:06;4.00;;;2.27;;
830;SDS011;397;50.564;7.272;2024-03-02T00:35:33;5.10;;;2.50;;
830;SDS011;397;50.564;7.272;2024-03-02T00:38:04;3.10;;;2.37;;
830;SDS011;397;50.564;7.272;2024-03-02T00:40:32;3.33;;;2.40;;
830;SDS011;397;50.564;7.272;2024-03-02T00:42:59;4.33;;;1.73;;
830;SDS011;397;50.564;7.272;2024-03-02T00:45:27;2.70;;;1.50;;
830;SDS011;397;50.564;7.272;2024-03-02T00:47:54;3.40;;;1.57;;
830;SDS011;397;50.564;7.272;2024-03-02T00:50:21;5.33;;;2.17;;
830;SDS011;397;50.564;7.272;2024-03-02T00:52:49;2.63;;;1.57;;
830;SDS011;397;50.564;7.272;2024-03-02T00:55:16;2.90;;;1.67;;
830;SDS011;397;50.564;7.272;2024-03-02T00:57:43;3.07;;;1.90;;
830;SDS011;397;50.564;7.272;2024-03-02T01:00:11;3.17;;;1.83;;
830;SDS011;397;50.564;7.272;2024-03-02T01:02:40;4.03;;;2.40;;
830;SDS011;397;50.564;7.272;2024-03-02T01:05:09;2.67;;;1.37;;
830;SDS011;397;50.564;7.272;2024-03-02T01:07:38;3.40;;;2.03;;
830;SDS011;397;50.564;7.272;2024-03-02T01:10:05;5.10;;;2.50;;
830;SDS011;397;50.564;7.272;2024-03-02T01:12:32;3.90;;;2.03;;
830;SDS011;397;50.564;7.272;2024-03-02T01:14:59;4.90;;;2.50;;
830;SDS011;397;50.564;7.272;2024-03-02T01:17:27;4.97;;;2.10;;
830;SDS011;397;50.564;7.272;2024-03-02T01:19:54;3.57;;;2.30;;
830;SDS011;397;50.564;7.272;2024-03-02T01:22:22;3.63;;;1.83;;
830;SDS011;397;50.564;7.272;2024-03-02T01:24:51;3.13;;;1.90;;
830;SDS011;397;50.564;7.272;2024-03-02T01:27:19;3.00;;;1.57;;
830;SDS011;397;50.564;7.272;2024-03-02T01:29:46;2.70;;;1.80;;
830;SDS011;397;50.564;7.272;2024-03-02T01:32:13;3.80;;;2.40;;
830;SDS011;397;50.564;7.272;2024-03-02T01:34:40;6.80;;;1.90;;
830;SDS011;397;50.564;7.272;2024-03-02T01:37:08;4.90;;;2.30;;
830;SDS011;397;50.564;7.272;2024-03-02T01:39:36;3.80;;;2.13;;
830;SDS011;397;50.564;7.272;2024-03-02T01:42:03;3.57;;;1.83;;
830;SDS011;397;50.564;7.272;2024-03-02T01:44:31;4.10;;;2.17;;
830;SDS011;397;50.564;7.272;2024-03-02T01:46:58;3.57;;;2.00;;
830;SDS011;397;50.564;7.272;2024-03-02T01:49:25;3.40;;;1.87;;
830;SDS011;397;50.564;7.272;2024-03-02T01:51:53;3.67;;;1.93;;
830;SDS011;397;50.564;7.272;2024-03-02T01:54:20;3.60;;;1.53;;
830;SDS011;397;50.564;7.272;2024-03-02T01:56:47;4.40;;;1.70;;
830;SDS011;397;50.564;7.272;2024-03-02T01:59:14;2.90;;;1.70;;
830;SDS011;397;50.564;7.272;2024-03-02T02:01:42;4.30;;;1.53;;
830;SDS011;397;50.564;7.272;2024-03-02T02:04:09;2.70;;;1.33;;
830;SDS011;397;50.564;7.272;2024-03-02T02:06:36;5.47;;;1.60;;
830;SDS011;397;50.564;7.272;2024-03-02T02:09:03;2.30;;;1.53;;
830;SDS011;397;50.564;7.272;2024-03-02T02:11:31;2.50;;;1.40;;
830;SDS011;397;50.564;7.272;2024-03-02T02:13:58;3.50;;;2.00;;
830;SDS011;397;50.564;7.272;2024-03-02T02:16:25;3.80;;;1.43;;
830;SDS011;397;50.564;7.272;2024-03-02T02:18:53;7.63;;;1.60;;
830;SDS011;397;50.564;7.272;2024-03-02T02:21:23;2.40;;;1.40;;
830;SDS011;397;50.564;7.272;2024-03-02T02:23:50;6.10;;;2.07;;
830;SDS011;397;50.564;7.272;2024-03-02T02:26:17;5.93;;;2.00;;
830;SDS011;397;50.564;7.272;2024-03-02T02:28:45;5.23;;;2.67;;
830;SDS011;397;50.564;7.272;2024-03-02T02:31:15;2.80;;;1.60;;
830;SDS011;397;50.564;7.272;2024-03-02T02:33:43;4.10;;;2.50;;
830;SDS011;397;50.564;7.272;2024-03-02T02:36:10;4.67;;;2.03;;
830;SDS011;397;50.564;7.272;2024-03-02T02:38:39;2.73;;;1.67;;
830;SDS011;397;50.564;7.272;2024-03-02T02:41:06;4.40;;;1.73;;
830;SDS011;397;50.564;7.272;2024-03-02T02:43:34;3.90;;;1.60;;
830;SDS011;397;50.564;7.272;2024-03-02T02:46:01;6.53;;;2.10;;
830;SDS011;397;50.564;7.272;2024-03-02T02:48:28;3.13;;;1.90;;
830;SDS011;397;50.564;7.272;2024-03-02T02:50:55;3.67;;;1.70;;
830;SDS011;397;50.564;7.272;2024-03-02T02:53:23;3.97;;;2.30;;
830;SDS011;397;50.564;7.272;2024-03-02T02:55:50;2.50;;;1.73;;
830;SDS011;397;50.564;7.272;2024-03-02T02:58:18;2.60;;;1.43;;
830;SDS011;397;50.564;7.272;2024-03-02T03:00:45;2.60;;;1.50;;
830;SDS011;397;50.564;7.272;2024-03-02T03:03:12;2.90;;;1.57;;
830;SDS011;397;50.564;7.272;2024-03-02T03:05:40;3.40;;;2.20;;
830;SDS011;397;50.564;7.272;2024-03-02T03:08:07;3.17;;;1.90;;
830;SDS011;397;50.564;7.272;2024-03-02T03:10:34;3.63;;;2.20;;
830;SDS011;397;50.564;7.272;2024-03-02T03:13:01;3.30;;;1.77;;
830;SDS011;397;50.564;7.272;2024-03-02T03:15:29;4.73;;;2.23;;
830;SDS011;397;50.564;7.272;2024-03-02T03:17:56;3.43;;;2.43;;
830;SDS011;397;50.564;7.272;2024-03-02T03:20:23;4.17;;;2.53;;
830;SDS011;397;50.564;7.272;2024-03-02T03:22:51;4.23;;;2.13;;
830;SDS011;397;50.564;7.272;2024-03-02T03:25:18;2.97;;;2.00;;
830;SDS011;397;50.564;7.272;2024-03-02T03:27:45;3.17;;;1.90;;
830;SDS011;397;50.564;7.272;2024-03-02T03:30:13;3.83;;;1.87;;
830;SDS011;397;50.564;7.272;2024-03-02T03:32:40;3.87;;;1.90;;
830;SDS011;397;50.564;7.272;2024-03-02T03:35:08;4.70;;;2.10;;
830;SDS011;397;50.564;7.272;2024-03-02T03:37:35;2.47;;;1.40;;
830;SDS011;397;50.564;7.272;2024-03-02T03:40:02;3.77;;;1.70;;
830;SDS011;397;50.564;7.272;2024-03-02T03:42:31;2.90;;;1.83;;
830;SDS011;397;50.564;7.272;2024-03-02T03:44:59;3.20;;;2.00;;
830;SDS011;397;50.564;7.272;2024-03-02T03:47:26;2.27;;;1.43;;
830;SDS011;397;50.564;7.272;2024-03-02T03:49:53;2.70;;;1.77;;
830;SDS011;397;50.564;7.272;2024-03-02T03:52:20;10.30;;;2.90;;
830;SDS011;397;50.564;7.272;2024-03-02T03:54:48;3.00;;;2.27;;
830;SDS011;397;50.564;7.272;2024-03-02T03:57:15;3.10;;;1.70;;
830;SDS011;397;50.564;7.272;2024-03-02T03:59:43;5.43;;;2.60;;
830;SDS011;397;50.564;7.272;2024-03-02T04:02:10;4.87;;;2.40;;
830;SDS011;397;50.564;7.272;2024-03-02T04:04:39;4.40;;;2.67;;
830;SDS011;397;50.564;7.272;2024-03-02T04:07:06;4.43;;;2.67;;
830;SDS011;397;50.564;7.272;2024-03-02T04:09:33;3.87;;;2.60;;
830;SDS011;397;50.564;7.272;2024-03-02T04:12:01;3.60;;;2.63;;
830;SDS011;397;50.564;7.272;2024-03-02T04:14:28;4.70;;;2.40;;
830;SDS011;397;50.564;7.272;2024-03-02T04:16:55;4.97;;;3.50;;
830;SDS011;397;50.564;7.272;2024-03-02T04:19:22;4.30;;;2.87;;
830;SDS011;397;50.564;7.272;2024-03-02T04:21:50;3.60;;;3.00;;
830;SDS011;397;50.564;7.272;2024-03-02T04:24:17;4.47;;;2.77;;
830;SDS011;397;50.564;7.272;2024-03-02T04:26:44;6.10;;;3.10;;
830;SDS011;397;50.564;7.272;2024-03-02T04:29:11;5.10;;;3.63;;
830;SDS011;397;50.564;7.272;2024-03-02T04:31:39;8.53;;;2.80;;
830;SDS011;397;50.564;7.272;2024-03-02T04:34:06;4.87;;;2.80;;
830;SDS011;397;50.564;7.272;2024-03-02T04:36:34;3.90;;;2.43;;
830;SDS011;397;50.564;7.272;2024-03-02T04:39:01;4.93;;;3.23;;
830;SDS011;397;50.564;7.272;2024-03-02T04:41:28;4.27;;;2.40;;
830;SDS011;397;50.564;7.272;2024-03-02T04:43:56;3.60;;;2.67;;
830;SDS011;397;50.564;7.272;2024-03-02T04:46:23;4.67;;;2.80;;
830;SDS011;397;50.564;7.272;2024-03-02T04:48:51;4.50;;;3.40;;
830;SDS011;397;50.564;7.272;2024-03-02T04:51:20;5.00;;;3.50;;
830;SDS011;397;50.564;7.272;2024-03-02T04:53:47;5.40;;;2.67;;
830;SDS011;397;50.564;7.272;2024-03-02T04:56:14;4.07;;;2.80;;
830;SDS011;397;50.564;7.272;2024-03-02T04:58:55;5.37;;;2.77;;
830;SDS011;397;50.564;7.272;2024-03-02T05:01:23;4.97;;;3.13;;
830;SDS011;397;50.564;7.272;2024-03-02T05:03:50;4.60;;;2.50;;
830;SDS011;397;50.564;7.272;2024-03-02T05:06:17;4.53;;;3.13;;
830;SDS011;397;50.564;7.272;2024-03-02T05:08:45;3.93;;;2.40;;
830;SDS011;397;50.564;7.272;2024-03-02T05:11:12;5.47;;;3.57;;
830;SDS011;397;50.564;7.272;2024-03-02T05:13:57;4.10;;;2.53;;
830;SDS011;397;50.564;7.272;2024-03-02T05:16:24;4.40;;;2.80;;
830;SDS011;397;50.564;7.272;2024-03-02T05:18:51;4.10;;;3.03;;
830;SDS011;397;50.564;7.272;2024-03-02T05:21:19;4.00;;;2.80;;
830;SDS011;397;50.564;7.272;2024-03-02T05:23:46;4.97;;;3.47;;
830;SDS011;397;50.564;7.272;2024-03-02T05:26:13;5.60;;;2.87;;
830;SDS011;397;50.564;7.272;2024-03-02T05:28:40;4.73;;;3.37;;
830;SDS011;397;50.564;7.272;2024-03-02T05:31:10;4.37;;;3.20;;
830;SDS011;397;50.564;7.272;2024-03-02T05:33:38;4.63;;;3.20;;
830;SDS011;397;50.564;7.272;2024-03-02T05:36:05;7.17;;;3.67;;
830;SDS011;397;50.564;7.272;2024-03-02T05:38:35;4.50;;;3.23;;
830;SDS011;397;50.564;7.272;2024-03-02T05:41:03;4.57;;;3.37;;
830;SDS011;397;50.564;7.272;2024-03-02T05:43:31;5.73;;;2.90;;
830;SDS011;397;50.564;7.272;2024-03-02T05:45:58;4.17;;;2.80;;
830;SDS011;397;50.564;7.272;2024-03-02T05:48:25;3.60;;;2.83;;
830;SDS011;397;50.564;7.272;2024-03-02T05:50:52;4.10;;;2.73;;
830;SDS011;397;50.564;7.272;2024-03-02T05:53:20;3.50;;;2.23;;
830;SDS011;397;50.564;7.272;2024-03-02T05:55:47;3.77;;;2.47;;
830;SDS011;397;50.564;7.272;2024-03-02T05:58:16;5.50;;;2.70;;
830;SDS011;397;50.564;7.272;2024-03-02T06:00:54;3.47;;;2.43;;
830;SDS011;397;50.564;7.272;2024-03-02T06:03:21;3.80;;;2.87;;
830;SDS011;397;50.564;7.272;2024-03-02T06:05:49;5.30;;;3.30;;
830;SDS011;397;50.564;7.272;2024-03-02T06:08:17;4.03;;;2.70;;
830;SDS011;397;50.564;7.272;2024-03-02T06:10:44;4.03;;;3.00;;
830;SDS011;397;50.564;7.272;2024-03-02T06:13:12;3.97;;;2.47;;
830;SDS011;397;50.564;7.272;2024-03-02T06:15:39;5.30;;;3.90;;
830;SDS011;397;50.564;7.272;2024-03-02T06:18:06;8.23;;;3.57;;
830;SDS011;397;50.564;7.272;2024-03-02T06:20:34;6.03;;;4.20;;
830;SDS011;397;50.564;7.272;2024-03-02T06:23:01;5.00;;;4.30;;
830;SDS011;397;50.564;7.272;2024-03-02T06:25:28;7.23;;;4.97;;
830;SDS011;397;50.564;7.272;2024-03-02T06:27:55;7.97;;;5.33;;
830;SDS011;397;50.564;7.272;2024-03-02T06:30:23;7.63;;;3.90;;
830;SDS011;397;50.564;7.272;2024-03-02T06:32:50;8.23;;;3.57;;
830;SDS011;397;50.564;7.272;2024-03-02T06:35:17;9.07;;;4.90;;
830;SDS011;397;50.564;7.272;2024-03-02T06:37:45;6.80;;;3.70;;
830;SDS011;397;50.564;7.272;2024-03-02T06:40:12;4.77;;;3.40;;
830;SDS011;397;50.564;7.272;2024-03-02T06:42:39;4.13;;;3.00;;
830;SDS011;397;50.564;7.272;2024-03-02T06:45:06;4.40;;;3.00;;
830;SDS011;397;50.564;7.272;2024-03-02T06:47:34;4.90;;;3.10;;
830;SDS011;397;50.564;7.272;2024-03-02T06:50:01;4.80;;;3.53;;
830;SDS011;397;50.564;7.272;2024-03-02T06:52:28;5.03;;;3.03;;
830;SDS011;397;50.564;7.272;2024-03-02T06:54:56;3.63;;;2.33;;
830;SDS011;397;50.564;7.272;2024-03-02T06:57:23;5.10;;;3.17;;
830;SDS011;397;50.564;7.272;2024-03-02T06:59:50;4.53;;;3.30;;
830;SDS011;397;50.564;7.272;2024-03-02T07:02:19;4.60;;;3.70;;
830;SDS011;397;50.564;7.272;2024-03-02T07:04:49;6.70;;;5.30;;
830;SDS011;397;50.564;7.272;2024-03-02T07:07:17;6.70;;;4.27;;
830;SDS011;397;50.564;7.272;2024-03-02T07:09:45;10.10;;;4.33;;
830;SDS011;397;50.564;7.272;2024-03-02T07:12:12;4.57;;;3.00;;
830;SDS011;397;50.564;7.272;2024-03-02T07:14:40;5.33;;;3.43;;
830;SDS011;397;50.564;7.272;2024-03-02T07:17:25;5.53;;;3.57;;
830;SDS011;397;50.564;7.272;2024-03-02T07:19:52;4.23;;;3.03;;
830;SDS011;397;50.564;7.272;2024-03-02T07:22:20;4.90;;;3.30;;
830;SDS011;397;50.564;7.272;2024-03-02T07:24:48;3.93;;;3.47;;
830;SDS011;397;50.564;7.272;2024-03-02T07:27:16;5.30;;;3.80;;
830;SDS011;397;50.564;7.272;2024-03-02T07:29:43;5.50;;;4.00;;
830;SDS011;397;50.564;7.272;2024-03-02T07:32:10;7.33;;;4.93;;
830;SDS011;397;50.564;7.272;2024-03-02T07:34:38;7.10;;;4.87;;
830;SDS011;397;50.564;7.272;2024-03-02T07:37:05;7.00;;;5.00;;
830;SDS011;397;50.564;7.272;2024-03-02T07:39:32;6.87;;;5.07;;
830;SDS011;397;50.564;7.272;2024-03-02T07:42:00;8.47;;;5.90;;
830;SDS011;397;50.564;7.272;2024-03-02T07:44:27;7.50;;;4.03;;
830;SDS011;397;50.564;7.272;2024-03-02T07:46:55;7.17;;;4.80;;
830;SDS011;397;50.564;7.272;2024-03-02T07:49:22;6.33;;;5.33;;
830;SDS011;397;50.564;7.272;2024-03-02T07:51:49;7.27;;;5.47;;
830;SDS011;397;50.564;7.272;2024-03-02T07:54:17;9.43;;;4.97;;
830;SDS011;397;50.564;7.272;2024-03-02T07:56:44;5.43;;;4.33;;
830;SDS011;397;50.564;7.272;2024-03-02T07:59:12;5.33;;;4.43;;
830;SDS011;397;50.564;7.272;2024-03-02T08:01:39;7.00;;;4.00;;
830;SDS011;397;50.564;7.272;2024-03-02T08:04:07;5.27;;;4.00;;
830;SDS011;397;50.564;7.272;2024-03-02T08:06:34;5.17;;;4.07;;
830;SDS011;397;50.564;7.272;2024-03-02T08:09:01;4.73;;;3.60;;
830;SDS011;397;50.564;7.272;2024-03-02T08:11:30;4.70;;;3.27;;
830;SDS011;397;50.564;7.272;2024-03-02T08:13:58;4.00;;;2.97;;
830;SDS011;397;50.564;7.272;2024-03-02T08:16:25;4.80;;;3.97;;
830;SDS011;397;50.564;7.272;2024-03-02T08:18:52;8.43;;;3.00;;
830;SDS011;397;50.564;7.272;2024-03-02T08:21:20;4.30;;;2.63;;
830;SDS011;397;50.564;7.272;2024-03-02T08:23:47;4.03;;;2.47;;
830;SDS011;397;50.564;7.272;2024-03-02T08:26:15;4.40;;;2.70;;
830;SDS011;397;50.564;7.272;2024-03-02T08:28:42;4.17;;;2.77;;
830;SDS011;397;50.564;7.272;2024-03-02T08:31:09;5.77;;;3.30;;
830;SDS011;397;50.564;7.272;2024-03-02T08:33:37;6.40;;;3.27;;
830;SDS011;397;50.564;7.272;2024-03-02T08:36:04;5.37;;;3.10;;
830;SDS011;397;50.564;7.272;2024-03-02T08:38:32;5.13;;;2.60;;
830;SDS011;397;50.564;7.272;2024-03-02T08:40:59;4.00;;;2.63;;
830;SDS011;397;50.564;7.272;2024-03-02T08:43:27;4.53;;;2.70;;
830;SDS011;397;50.564;7.272;2024-03-02T08:45:54;5.53;;;2.67;;
830;SDS011;397;50.564;7.272;2024-03-02T08:48:21;8.00;;;3.00;;
830;SDS011;397;50.564;7.272;2024-03-02T08:50:48;4.57;;;2.40;;
830;SDS011;397;50.564;7.272;2024-03-02T08:53:16;4.50;;;2.93;;
830;SDS011;397;50.564;7.272;2024-03-02T08:55:49;5.27;;;3.00;;
830;SDS011;397;50.564;7.272;2024-03-02T08:58:13;5.77;;;2.70;;
830;SDS011;397;50.564;7.272;2024-03-02T09:00:40;4.00;;;2.63;;
830;SDS011;397;50.564;7.272;2024-03-02T09:03:08;3.63;;;1.87;;
830;SDS011;397;50.564;7.272;2024-03-02T09:05:36;4.13;;;2.67;;
830;SDS011;397;50.564;7.272;2024-03-02T09:08:03;3.90;;;2.77;;
830;SDS011;397;50.564;7.272;2024-03-02T09:10:31;7.93;;;2.90;;
830;SDS011;397;50.564;7.272;2024-03-02T09:12:58;5.00;;;2.70;;
830;SDS011;397;50.564;7.272;2024-03-02T09:15:26;6.80;;;2.83;;
830;SDS011;397;50.564;7.272;2024-03-02T09:17:53;6.10;;;2.90;;
830;SDS011;397;50.564;7.272;2024-03-02T09:20:20;4.60;;;2.63;;
830;SDS011;397;50.564;7.272;2024-03-02T09:22:47;5.70;;;3.27;;
830;SDS011;397;50.564;7.272;2024-03-02T09:25:15;3.83;;;2.93;;
830;SDS011;397;50.564;7.272;2024-03-02T09:27:42;6.20;;;2.90;;
830;SDS011;397;50.564;7.272;2024-03-02T09:30:09;5.03;;;3.10;;
830;SDS011;397;50.564;7.272;2024-03-02T09:32:37;4.40;;;2.53;;
830;SDS011;397;50.564;7.272;2024-03-02T09:35:04;4.70;;;2.67;;
830;SDS011;397;50.564;7.272;2024-03-02T09:37:32;4.23;;;2.40;;
830;SDS011;397;50.564;7.272;2024-03-02T09:39:59;6.13;;;2.57;;
830;SDS011;397;50.564;7.272;2024-03-02T09:42:27;6.27;;;2.80;;
830;SDS011;397;50.564;7.272;2024-03-02T09:44:54;3.70;;;2.53;;
830;SDS011;397;50.564;7.272;2024-03-02T09:47:21;5.27;;;3.10;;
830;SDS011;397;50.564;7.272;2024-03-02T09:49:49;4.67;;;2.87;;
830;SDS011;397;50.564;7.272;2024-03-02T09:52:16;3.80;;;2.63;;
830;SDS011;397;50.564;7.272;2024-03-02T09:54:43;3.87;;;2.40;;
830;SDS011;397;50.564;7.272;2024-03-02T09:57:11;6.27;;;2.73;;
830;SDS011;397;50.564;7.272;2024-03-02T09:59:38;6.63;;;3.00;;
830;SDS011;397;50.564;7.272;2024-03-02T10:02:05;6.80;;;3.77;;
830;SDS011;397;50.564;7.272;2024-03-02T10:04:34;4.90;;;3.30;;
830;SDS011;397;50.564;7.272;2024-03-02T10:07:13;6.40;;;3.33;;
830;SDS011;397;50.564;7.272;2024-03-02T10:09:40;4.97;;;4.00;;
830;SDS011;397;50.564;7.272;2024-03-02T10:12:08;7.50;;;5.40;;
830;SDS011;397;50.564;7.272;2024-03-02T10:14:37;5.63;;;2.80;;
830;SDS011;397;50.564;7.272;2024-03-02T10:17:06;4.70;;;2.67;;
830;SDS011;397;50.564;7.272;2024-03-02T10:19:34;5.07;;;2.77;;
830;SDS011;397;50.564;7.272;2024-03-02T10:22:02;4.70;;;3.40;;
830;SDS011;397;50.564;7.272;2024-03-02T10:24:37;7.73;;;3.47;;
830;SDS011;397;50.564;7.272;2024-03-02T10:27:02;4.03;;;2.63;;
830;SDS011;397;50.564;7.272;2024-03-02T10:29:29;4.93;;;3.07;;
830;SDS011;397;50.564;7.272;2024-03-02T10:31:57;4.83;;;3.27;;
830;SDS011;397;50.564;7.272;2024-03-02T10:34:25;3.87;;;2.20;;
830;SDS011;397;50.564;7.272;2024-03-02T10:36:52;4.60;;;3.43;;
830;SDS011;397;50.564;7.272;2024-03-02T10:39:20;3.63;;;2.17;;
830;SDS011;397;50.564;7.272;2024-03-02T10:41:47;3.90;;;2.47;;
830;SDS011;397;50.564;7.272;2024-03-02T10:44:16;4.07;;;2.40;;
830;SDS011;397;50.564;7.272;2024-03-02T10:46:44;6.07;;;2.20;;
830;SDS011;397;50.564;7.272;2024-03-02T10:49:12;2.60;;;1.53;;
830;SDS011;397;50.564;7.272;2024-03-02T10:51:39;7.23;;;1.93;;
830;SDS011;397;50.564;7.272;2024-03-02T10:54:07;4.50;;;2.23;;
830;SDS011;397;50.564;7.272;2024-03-02T10:56:41;4.70;;;1.83;;
830;SDS011;397;50.564;7.272;2024-03-02T10:59:21;2.67;;;1.43;;
830;SDS011;397;50.564;7.272;2024-03-02T11:01:46;3.80;;;1.33;;
830;SDS011;397;50.564;7.272;2024-03-02T11:04:18;2.73;;;1.43;;
830;SDS011;397;50.564;7.272;2024-03-02T11:06:48;3.80;;;1.83;;
830;SDS011;397;50.564;7.272;2024-03-02T11:09:12;2.80;;;1.30;;
830;SDS011;397;50.564;7.272;2024-03-02T11:11:43;3.13;;;1.63;;
830;SDS011;397;50.564;7.272;2024-03-02T11:14:13;4.43;;;2.07;;
830;SDS011;397;50.564;7.272;2024-03-02T11:16:39;6.93;;;2.30;;
830;SDS011;397;50.564;7.272;2024-03-02T11:19:10;3.10;;;1.90;;
830;SDS011;397;50.564;7.272;2024-03-02T11:21:36;4.07;;;2.13;;
830;SDS011;397;50.564;7.272;2024-03-02T11:24:48;4.33;;;1.80;;
830;SDS011;397;50.564;7.272;2024-03-02T11:26:38;5.13;;;2.40;;
830;SDS011;397;50.564;7.272;2024-03-02T11:29:08;4.50;;;2.40;;
830;SDS011;397;50.564;7.272;2024-03-02T11:31:57;3.60;;;2.27;;
830;SDS011;397;50.564;7.272;2024-03-02T11:34:32;3.23;;;2.20;;
830;SDS011;397;50.564;7.272;2024-03-02T11:37:03;3.23;;;1.93;;
830;SDS011;397;50.564;7.272;2024-03-02T11:39:30;3.17;;;1.50;;
830;SDS011;397;50.564;7.272;2024-03-02T11:41:58;3.33;;;1.53;;
830;SDS011;397;50.564;7.272;2024-03-02T11:44:31;6.87;;;2.77;;
830;SDS011;397;50.564;7.272;2024-03-02T11:46:58;3.13;;;1.70;;
830;SDS011;397;50.564;7.272;2024-03-02T11:49:39;2.70;;;1.60;;
830;SDS011;397;50.564;7.272;2024-03-02T11:52:07;4.00;;;1.60;;
830;SDS011;397;50.564;7.272;2024-03-02T11:54:36;5.03;;;2.03;;
830;SDS011;397;50.564;7.272;2024-03-02T11:57:10;2.20;;;1.30;;
830;SDS011;397;50.564;7.272;2024-03-02T11:59:34;5.00;;;1.70;;
830;SDS011;397;50.564;7.272;2024-03-02T12:02:02;3.00;;;1.40;;
830;SDS011;397;50.564;7.272;2024-03-02T12:04:29;3.90;;;2.20;;
830;SDS011;397;50.564;7.272;2024-03-02T12:06:58;3.30;;;1.30;;
830;SDS011;397;50.564;7.272;2024-03-02T12:09:28;3.27;;;1.90;;
830;SDS011;397;50.564;7.272;2024-03-02T12:12:10;3.47;;;2.17;;
830;SDS011;397;50.564;7.272;2024-03-02T12:14:34;2.67;;;1.30;;
830;SDS011;397;50.564;7.272;2024-03-02T12:17:02;4.30;;;2.07;;
830;SDS011;397;50.564;7.272;2024-03-02T12:19:32;3.07;;;1.70;;
830;SDS011;397;50.564;7.272;2024-03-02T12:21:59;2.83;;;1.90;;
830;SDS011;397;50.564;7.272;2024-03-02T12:24:29;3.23;;;1.37;;
830;SDS011;397;50.564;7.272;2024-03-02T12:26:56;2.50;;;1.40;;
830;SDS011;397;50.564;7.272;2024-03-02T12:29:24;2.70;;;1.50;;
830;SDS011;397;50.564;7.272;2024-03-02T12:31:51;3.30;;;1.80;;
830;SDS011;397;50.564;7.272;2024-03-02T12:34:19;4.27;;;1.87;;
830;SDS011;397;50.564;7.272;2024-03-02T12:36:46;2.90;;;1.70;;
830;SDS011;397;50.564;7.272;2024-03-02T12:39:20;4.83;;;1.50;;
830;SDS011;397;50.564;7.272;2024-03-02T12:41:45;2.97;;;1.60;;
830;SDS011;397;50.564;7.272;2024-03-02T12:44:13;2.63;;;1.53;;
830;SDS011;397;50.564;7.272;2024-03-02T12:46:40;3.47;;;1.40;;
830;SDS011;397;50.564;7.272;2024-03-02T12:49:09;2.90;;;1.47;;
830;SDS011;397;50.564;7.272;2024-03-02T12:51:42;2.50;;;1.60;;
830;SDS011;397;50.564;7.272;2024-03-02T12:54:10;3.60;;;1.67;;
830;SDS011;397;50.564;7.272;2024-03-02T12:56:38;4.97;;;2.13;;
830;SDS011;397;50.564;7.272;2024-03-02T12:59:05;3.30;;;1.57;;
830;SDS011;397;50.564;7.272;2024-03-02T13:01:32;2.70;;;1.70;;
830;SDS011;397;50.564;7.272;2024-03-02T13:04:00;2.60;;;1.53;;
830;SDS011;397;50.564;7.272;2024-03-02T13:06:28;3.20;;;1.67;;
830;SDS011;397;50.564;7.272;2024-03-02T13:08:55;4.70;;;1.53;;
830;SDS011;397;50.564;7.272;2024-03-02T13:11:22;3.40;;;1.50;;
830;SDS011;397;50.564;7.272;2024-03-02T13:13:51;2.60;;;1.50;;
830;SDS011;397;50.564;7.272;2024-03-02T13:16:18;3.07;;;1.60;;
830;SDS011;397;50.564;7.272;2024-03-02T13:18:46;2.80;;;1.80;;
830;SDS011;397;50.564;7.272;2024-03-02T13:21:14;3.03;;;1.77;;
830;SDS011;397;50.564;7.272;2024-03-02T13:23:41;3.97;;;1.40;;
830;SDS011;397;50.564;7.272;2024-03-02T13:26:09;3.07;;;1.47;;
830;SDS011;397;50.564;7.272;2024-03-02T13:28:38;5.63;;;1.80;;
830;SDS011;397;50.564;7.272;2024-03-02T13:31:05;2.97;;;1.47;;
830;SDS011;397;50.564;7.272;2024-03-02T13:33:32;3.30;;;1.60;;
830;SDS011;397;50.564;7.272;2024-03-02T13:36:00;5.47;;;1.50;;
830;SDS011;397;50.564;7.272;2024-03-02T13:38:28;2.90;;;1.67;;
830;SDS011;397;50.564;7.272;2024-03-02T13:40:55;2.70;;;1.40;;
830;SDS011;397;50.564;7.272;2024-03-02T13:43:22;2.43;;;1.17;;
830;SDS011;397;50.564;7.272;2024-03-02T13:45:50;3.00;;;1.27;;
830;SDS011;397;50.564;7.272;2024-03-02T13:48:18;3.43;;;1.60;;
830;SDS011;397;50.564;7.272;2024-03-02T13:50:45;3.67;;;2.00;;
830;SDS011;397;50.564;7.272;2024-03-02T13:53:13;2.43;;;1.47;;
830;SDS011;397;50.564;7.272;2024-03-02T13:55:40;4.23;;;2.20;;
830;SDS011;397;50.564;7.272;2024-03-02T13:58:08;2.90;;;1.60;;
830;SDS011;397;50.564;7.272;2024-03-02T14:00:35;4.10;;;1.77;;
830;SDS011;397;50.564;7.272;2024-03-02T14:03:04;5.23;;;2.00;;
830;SDS011;397;50.564;7.272;2024-03-02T14:05:31;3.43;;;1.63;;
830;SDS011;397;50.564;7.272;2024-03-02T14:07:59;3.03;;;1.73;;
830;SDS011;397;50.564;7.272;2024-03-02T14:10:27;4.13;;;1.97;;
830;SDS011;397;50.564;7.272;2024-03-02T14:12:55;3.40;;;1.80;;
830;SDS011;397;50.564;7.272;2024-03-02T14:15:22;3.60;;;1.40;;
830;SDS011;397;50.564;7.272;2024-03-02T14:17:50;3.90;;;1.80;;
830;SDS011;397;50.564;7.272;2024-03-02T14:20:18;4.37;;;2.37;;
830;SDS011;397;50.564;7.272;2024-03-02T14:22:47;3.00;;;1.70;;
830;SDS011;397;50.564;7.272;2024-03-02T14:25:14;3.00;;;1.43;;
830;SDS011;397;50.564;7.272;2024-03-02T14:27:42;3.33;;;1.70;;
830;SDS011;397;50.564;7.272;2024-03-02T14:30:10;7.67;;;1.93;;
830;SDS011;397;50.564;7.272;2024-03-02T14:32:37;2.97;;;1.23;;
830;SDS011;397;50.564;7.272;2024-03-02T14:35:05;2.83;;;1.53;;
830;SDS011;397;50.564;7.272;2024-03-02T14:37:34;2.80;;;1.47;;
830;SDS011;397;50.564;7.272;2024-03-02T14:40:02;3.00;;;1.90;;
830;SDS011;397;50.564;7.272;2024-03-02T14:42:31;2.90;;;1.50;;
830;SDS011;397;50.564;7.272;2024-03-02T14:44:58;2.77;;;1.50;;
830;SDS011;397;50.564;7.272;2024-03-02T14:47:25;2.77;;;1.83;;
830;SDS011;397;50.564;7.272;2024-03-02T14:49:53;4.10;;;1.60;;
830;SDS011;397;50.564;7.272;2024-03-02T14:52:20;3.40;;;1.53;;
830;SDS011;397;50.564;7.272;2024-03-02T14:54:47;2.63;;;1.37;;
830;SDS011;397;50.564;7.272;2024-03-02T14:57:15;2.63;;;1.40;;
830;SDS011;397;50.564;7.272;2024-03-02T14:59:42;3.43;;;1.40;;
830;SDS011;397;50.564;7.272;2024-03-02T15:02:09;3.27;;;1.50;;
830;SDS011;397;50.564;7.272;2024-03-02T15:04:37;2.80;;;1.40;;
830;SDS011;397;50.564;7.272;2024-03-02T15:07:04;2.77;;;1.27;;
830;SDS011;397;50.564;7.272;2024-03-02T15:09:31;4.33;;;1.40;;
830;SDS011;397;50.564;7.272;2024-03-02T15:12:00;2.57;;;1.30;;
830;SDS011;397;50.564;7.272;2024-03-02T15:14:29;4.00;;;1.40;;
830;SDS011;397;50.564;7.272;2024-03-02T15:16:57;2.83;;;1.40;;
830;SDS011;397;50.564;7.272;2024-03-02T15:19:24;3.17;;;1.57;;
830;SDS011;397;50.564;7.272;2024-03-02T15:21:51;2.70;;;1.30;;
830;SDS011;397;50.564;7.272;2024-03-02T15:24:18;4.20;;;1.80;;
830;SDS011;397;50.564;7.272;2024-03-02T15:26:46;3.53;;;1.70;;
830;SDS011;397;50.564;7.272;2024-03-02T15:29:13;5.13;;;1.43;;
830;SDS011;397;50.564;7.272;2024-03-02T15:31:40;2.93;;;1.77;;
830;SDS011;397;50.564;7.272;2024-03-02T15:34:08;3.00;;;1.57;;
830;SDS011;397;50.564;7.272;2024-03-02T15:36:35;2.93;;;1.30;;
830;SDS011;397;50.564;7.272;2024-03-02T15:39:02;2.70;;;1.50;;
830;SDS011;397;50.564;7.272;2024-03-02T15:41:31;3.73;;;1.87;;
830;SDS011;397;50.564;7.272;2024-03-02T15:43:59;2.80;;;1.57;;
830;SDS011;397;50.564;7.272;2024-03-02T15:46:26;2.67;;;1.57;;
830;SDS011;397;50.564;7.272;2024-03-02T15:48:53;2.30;;;1.20;;
830;SDS011;397;50.564;7.272;2024-03-02T15:51:21;2.97;;;1.30;;
830;SDS011;397;50.564;7.272;2024-03-02T15:53:48;3.40;;;1.70;;